sim
Sign-in with your pilot id or email,
or register
Callsign
Passwort

Schedule Details

Flight Number: OEO6733
Departure: New York John F. Kennedy International Airport (KJFK) at 21:45
Arrival: Munich Airport (EDDM) at 05:50

Weather Information
Getting current METAR information for KJFK 282151Z 17013KT 10SM FEW010 FEW030 FEW065 SCT250 22/19 A2990 RMK AO2 SLP124 T02170194 $
Getting current METAR information for EDDM 282150Z VRB02KT CAVOK 08/07 Q1016 NOSIG

Schedule Frequency

Route Map